Time;durP1;ratioP1;P1;durP2;ratioP2;P2;SDS_P1;SDS_P2;PMS_P1;PMS_P2;Temp;Humidity;BMP_temperature;BMP_pressure;BME280_temperature;BME280_humidity;BME280_pressure;Samples;Min_cycle;Max_cycle;Signal;HPM_P1;HPM_P2
2024/02/17 00:04:47;;;;;;;;;;;10.70;99.90;;;;;;21210212;27;19950;-78
2024/02/17 00:14:48;;;;;;;;;;;10.80;99.90;;;;;;21261480;27;19918;-78
2024/02/17 00:24:49;;;;;;;;;;;10.80;99.90;;;;;;21315378;27;19918;-79
2024/02/17 00:34:49;;;;;;;;;;;10.90;99.90;;;;;;21287868;27;19919;-78
2024/02/17 00:44:50;;;;;;;;;;;10.90;99.90;;;;;;21306667;27;19923;-79
2024/02/17 00:54:51;;;;;;;;;;;10.90;99.90;;;;;;21315417;27;19918;-79
2024/02/17 01:04:51;;;;;;;;;;;10.90;99.90;;;;;;21283329;27;19923;-79
2024/02/17 01:14:52;;;;;;;;;;;10.90;99.90;;;;;;21278694;27;19916;-78
2024/02/17 01:24:53;;;;;;;;;;;10.90;99.90;;;;;;21286621;27;19915;-79
2024/02/17 01:34:53;;;;;;;;;;;10.80;99.90;;;;;;21272144;27;20377;-79
2024/02/17 01:44:54;;;;;;;;;;;10.90;99.90;;;;;;21262336;27;20606;-79
2024/02/17 01:54:54;;;;;;;;;;;10.80;99.90;;;;;;21296752;27;19919;-79
2024/02/17 02:04:55;;;;;;;;;;;10.80;99.90;;;;;;21275772;27;19963;-79
2024/02/17 02:15:03;;;;;;;;;;;10.80;99.90;;;;;;21290700;27;19926;-79
2024/02/17 02:25:05;;;;;;;;;;;10.80;99.90;;;;;;21273509;27;19986;-79
2024/02/17 02:35:08;;;;;;;;;;;10.80;99.90;;;;;;21291787;27;21368;-79
2024/02/17 02:45:09;;;;;;;;;;;10.80;99.90;;;;;;21296164;27;19915;-80
2024/02/17 02:55:09;;;;;;;;;;;10.80;99.90;;;;;;21317386;27;19910;-79
2024/02/17 03:05:10;;;;;;;;;;;10.80;99.90;;;;;;21280626;27;19919;-81
2024/02/17 03:15:11;;;;;;;;;;;10.80;99.90;;;;;;21314215;27;20258;-82
2024/02/17 03:25:12;;;;;;;;;;;10.70;99.90;;;;;;21309545;27;20002;-79
2024/02/17 03:35:12;;;;;;;;;;;10.70;99.90;;;;;;21340528;27;19918;-78
2024/02/17 03:45:13;;;;;;;;;;;10.60;99.90;;;;;;21318003;27;19941;-79
2024/02/17 03:55:14;;;;;;;;;;;10.60;99.90;;;;;;21340765;27;20369;-78
2024/02/17 04:05:16;;;;;;;;;;;10.60;99.90;;;;;;21332583;27;19922;-78
2024/02/17 04:15:17;;;;;;;;;;;10.60;99.90;;;;;;21311098;27;19914;-79
2024/02/17 04:25:18;;;;;;;;;;;10.70;99.90;;;;;;21351652;27;20389;-78
2024/02/17 04:35:18;;;;;;;;;;;10.60;99.90;;;;;;21369126;27;19929;-79
2024/02/17 04:45:20;;;;;;;;;;;10.50;99.90;;;;;;21344039;27;20479;-79
2024/02/17 04:55:20;;;;;;;;;;;10.60;99.90;;;;;;21313455;27;20460;-79
2024/02/17 05:05:21;;;;;;;;;;;10.60;99.90;;;;;;21333106;27;19923;-79
2024/02/17 05:15:22;;;;;;;;;;;10.50;99.90;;;;;;21327990;27;19915;-78
2024/02/17 05:25:22;;;;;;;;;;;10.40;99.90;;;;;;21344702;27;20013;-79
2024/02/17 05:35:23;;;;;;;;;;;10.40;99.90;;;;;;21354941;27;19911;-79
2024/02/17 05:45:25;;;;;;;;;;;10.30;99.90;;;;;;21345291;27;19922;-78
2024/02/17 05:55:26;;;;;;;;;;;10.20;99.90;;;;;;21349254;27;19911;-80
2024/02/17 06:05:28;;;;;;;;;;;10.20;99.90;;;;;;21337204;27;19947;-79
2024/02/17 06:15:29;;;;;;;;;;;10.20;99.90;;;;;;21338118;27;19911;-79
2024/02/17 06:25:30;;;;;;;;;;;10.10;99.90;;;;;;21314141;27;19923;-79
2024/02/17 06:35:31;;;;;;;;;;;10.10;99.90;;;;;;21320071;27;19918;-79
2024/02/17 06:45:32;;;;;;;;;;;10.10;99.90;;;;;;21334702;27;19915;-79
2024/02/17 06:55:33;;;;;;;;;;;10.10;99.90;;;;;;21319270;27;19956;-79
2024/02/17 07:05:34;;;;;;;;;;;10.10;99.90;;;;;;21340236;27;19923;-79
2024/02/17 07:15:35;;;;;;;;;;;10.10;99.90;;;;;;21302047;27;19911;-79
2024/02/17 07:25:35;;;;;;;;;;;10.10;99.90;;;;;;21327152;27;19937;-79
2024/02/17 07:35:40;;;;;;;;;;;10.10;99.90;;;;;;21323138;27;19911;-79
2024/02/17 07:45:41;;;;;;;;;;;10.10;99.90;;;;;;21331772;27;19925;-79
2024/02/17 07:55:42;;;;;;;;;;;10.10;99.90;;;;;;21328602;27;19912;-79
2024/02/17 08:05:42;;;;;;;;;;;10.20;99.90;;;;;;21293359;27;19916;-79
2024/02/17 08:15:43;;;;;;;;;;;10.20;99.90;;;;;;21224163;27;19915;-79
2024/02/17 08:25:44;;;;;;;;;;;10.30;99.90;;;;;;21230558;27;19915;-79
2024/02/17 08:35:45;;;;;;;;;;;10.30;99.90;;;;;;21219502;27;20006;-79
2024/02/17 08:45:45;;;;;;;;;;;10.40;99.90;;;;;;21195987;27;19950;-79
2024/02/17 08:55:46;;;;;;;;;;;10.40;99.90;;;;;;21198859;27;19912;-78
2024/02/17 09:05:47;;;;;;;;;;;10.50;99.90;;;;;;21207584;27;19916;-79
2024/02/17 09:15:48;;;;;;;;;;;10.70;99.90;;;;;;21208844;28;19911;-79
2024/02/17 09:25:48;;;;;;;;;;;10.70;99.90;;;;;;21220486;28;19920;-79
2024/02/17 09:35:49;;;;;;;;;;;10.80;99.90;;;;;;21226078;28;19969;-80
2024/02/17 09:45:49;;;;;;;;;;;10.80;99.90;;;;;;21241446;28;19940;-78
2024/02/17 09:55:50;;;;;;;;;;;10.20;99.90;;;;;;21263918;28;19912;-80
2024/02/17 10:05:51;;;;;;;;;;;10.20;99.90;;;;;;21221006;27;19915;-81
2024/02/17 10:15:52;;;;;;;;;;;10.20;99.90;;;;;;21272172;27;20442;-79
2024/02/17 10:25:52;;;;;;;;;;;10.60;99.90;;;;;;21236245;27;19930;-80
2024/02/17 10:35:54;;;;;;;;;;;10.70;99.90;;;;;;21275049;27;20002;-80
2024/02/17 10:45:56;;;;;;;;;;;10.90;99.90;;;;;;21256447;27;19941;-79
2024/02/17 10:55:58;;;;;;;;;;;11.00;99.90;;;;;;21233105;27;19912;-80
2024/02/17 11:06:03;;;;;;;;;;;11.00;99.90;;;;;;21280529;27;19925;-79
2024/02/17 11:16:05;;;;;;;;;;;11.10;99.90;;;;;;21356021;27;19915;-80
2024/02/17 11:26:06;;;;;;;;;;;11.20;99.90;;;;;;21349012;27;19919;-80
2024/02/17 11:36:09;;;;;;;;;;;11.10;99.90;;;;;;21313630;27;19947;-80
2024/02/17 11:46:13;;;;;;;;;;;11.10;99.90;;;;;;21280127;27;20063;-79
2024/02/17 11:56:14;;;;;;;;;;;11.30;99.90;;;;;;21263910;27;19911;-80
2024/02/17 12:06:15;;;;;;;;;;;11.30;99.90;;;;;;21250772;27;19940;-79
2024/02/17 12:16:16;;;;;;;;;;;11.30;99.90;;;;;;21248021;27;19911;-78
2024/02/17 12:26:16;;;;;;;;;;;11.20;99.90;;;;;;21208073;27;20057;-80
2024/02/17 12:36:21;;;;;;;;;;;11.10;99.90;;;;;;21193375;27;19911;-80
2024/02/17 12:46:23;;;;;;;;;;;11.40;99.90;;;;;;21160219;27;19969;-80
2024/02/17 12:56:25;;;;;;;;;;;11.40;99.90;;;;;;21166126;27;19920;-80
2024/02/17 13:06:26;;;;;;;;;;;11.40;99.90;;;;;;21178601;27;20329;-80
2024/02/17 13:16:28;;;;;;;;;;;11.30;99.90;;;;;;21181538;28;19912;-81
2024/02/17 13:26:29;;;;;;;;;;;11.60;99.90;;;;;;21185323;28;20259;-80
2024/02/17 13:36:30;;;;;;;;;;;11.60;99.90;;;;;;21175807;28;19912;-79
2024/02/17 13:46:31;;;;;;;;;;;11.50;99.90;;;;;;21184628;27;20443;-81
2024/02/17 13:56:31;;;;;;;;;;;11.60;99.90;;;;;;21197096;27;19912;-79
2024/02/17 14:06:32;;;;;;;;;;;11.40;99.90;;;;;;21193687;27;19916;-80
2024/02/17 14:16:33;;;;;;;;;;;11.50;99.90;;;;;;21187048;27;19912;-80
2024/02/17 14:26:34;;;;;;;;;;;11.30;99.90;;;;;;21203098;27;20067;-80
2024/02/17 14:36:34;;;;;;;;;;;11.20;99.90;;;;;;21204544;27;19958;-81
2024/02/17 14:46:36;;;;;;;;;;;11.00;99.90;;;;;;21174050;28;19915;-81
2024/02/17 14:56:37;;;;;;;;;;;10.90;99.90;;;;;;21183598;28;20293;-81
2024/02/17 15:06:37;;;;;;;;;;;10.90;99.90;;;;;;21194342;27;20443;-80
2024/02/17 15:16:38;;;;;;;;;;;10.90;99.90;;;;;;21236004;27;19911;-80
2024/02/17 15:26:39;;;;;;;;;;;11.00;99.90;;;;;;21264071;27;19948;-80
2024/02/17 15:36:40;;;;;;;;;;;10.90;99.90;;;;;;21253063;27;20431;-81
2024/02/17 15:46:40;;;;;;;;;;;10.70;99.90;;;;;;21238627;27;20002;-78
2024/02/17 15:56:41;;;;;;;;;;;10.50;99.90;;;;;;21250841;27;19961;-80
2024/02/17 16:06:42;;;;;;;;;;;10.50;99.90;;;;;;21275958;27;19960;-79
2024/02/17 16:16:42;;;;;;;;;;;10.40;99.90;;;;;;21309279;27;19931;-80
2024/02/17 16:26:45;;;;;;;;;;;10.40;99.90;;;;;;21310243;27;19962;-79
2024/02/17 16:36:46;;;;;;;;;;;10.40;99.90;;;;;;21324423;27;19918;-80
2024/02/17 16:46:53;;;;;;;;;;;10.40;99.90;;;;;;21327439;27;20270;-80
2024/02/17 16:56:54;;;;;;;;;;;10.40;99.90;;;;;;21316267;27;19911;-79
2024/02/17 17:06:54;;;;;;;;;;;10.20;99.90;;;;;;21300702;27;19919;-80
2024/02/17 17:16:55;;;;;;;;;;;10.30;99.90;;;;;;21293918;27;19978;-79
2024/02/17 17:26:56;;;;;;;;;;;10.20;99.90;;;;;;21320702;27;19943;-80
2024/02/17 17:36:56;;;;;;;;;;;10.10;99.90;;;;;;21325893;27;19933;-79
2024/02/17 17:46:59;;;;;;;;;;;10.20;99.90;;;;;;21356828;27;20453;-79
2024/02/17 17:57:00;;;;;;;;;;;10.20;99.90;;;;;;21365306;27;19911;-80
2024/02/17 18:07:00;;;;;;;;;;;10.10;99.90;;;;;;21334419;27;19937;-79
2024/02/17 18:17:01;;;;;;;;;;;10.10;99.90;;;;;;21357055;27;19917;-81
2024/02/17 18:27:02;;;;;;;;;;;10.10;99.90;;;;;;21336375;27;20373;-80
2024/02/17 18:37:04;;;;;;;;;;;10.00;99.90;;;;;;21307755;27;19911;-80
2024/02/17 18:47:05;;;;;;;;;;;10.10;99.90;;;;;;21347805;27;19919;-79
2024/02/17 18:57:05;;;;;;;;;;;10.10;99.90;;;;;;21351872;27;20325;-79
2024/02/17 19:07:06;;;;;;;;;;;10.10;99.90;;;;;;21337283;27;20041;-79
2024/02/17 19:17:07;;;;;;;;;;;10.20;99.90;;;;;;21331388;27;20370;-79
2024/02/17 19:27:07;;;;;;;;;;;10.10;99.90;;;;;;21349277;27;21142;-79
2024/02/17 19:37:08;;;;;;;;;;;10.20;99.90;;;;;;21340665;27;19994;-79
2024/02/17 19:47:09;;;;;;;;;;;10.10;99.90;;;;;;21327161;27;19961;-80
2024/02/17 19:57:09;;;;;;;;;;;10.10;99.90;;;;;;21340860;27;19919;-79
2024/02/17 20:07:10;;;;;;;;;;;10.00;99.90;;;;;;21310525;27;19918;-80
2024/02/17 20:17:11;;;;;;;;;;;9.80;99.90;;;;;;21199857;27;19916;-79
2024/02/17 20:27:12;;;;;;;;;;;9.80;99.90;;;;;;21191941;27;20010;-79
2024/02/17 20:37:12;;;;;;;;;;;9.90;99.90;;;;;;21186201;27;20007;-80
2024/02/17 20:47:13;;;;;;;;;;;9.80;99.90;;;;;;21187775;27;19951;-79
2024/02/17 20:57:14;;;;;;;;;;;9.80;99.90;;;;;;21189562;27;20011;-80
2024/02/17 21:07:16;;;;;;;;;;;9.80;99.90;;;;;;21181809;27;19927;-80
2024/02/17 21:17:17;;;;;;;;;;;9.70;99.90;;;;;;21190438;28;19912;-80
2024/02/17 21:27:17;;;;;;;;;;;9.70;99.90;;;;;;21184583;27;19916;-79
2024/02/17 21:37:19;;;;;;;;;;;9.80;99.90;;;;;;21162101;28;19912;-80
2024/02/17 21:47:19;;;;;;;;;;;9.80;99.90;;;;;;21180402;28;19978;-80
2024/02/17 21:57:20;;;;;;;;;;;9.70;99.90;;;;;;21188690;28;19957;-79
2024/02/17 22:07:21;;;;;;;;;;;9.70;99.90;;;;;;21274117;27;20394;-81
2024/02/17 22:17:22;;;;;;;;;;;9.40;99.90;;;;;;21330977;27;19911;-80
2024/02/17 22:27:24;;;;;;;;;;;9.50;99.90;;;;;;21355593;27;19915;-80
2024/02/17 22:37:24;;;;;;;;;;;9.60;99.90;;;;;;21312233;27;19911;-80
2024/02/17 22:47:25;;;;;;;;;;;9.60;99.90;;;;;;21342092;27;19927;-79
2024/02/17 22:57:26;;;;;;;;;;;9.60;99.90;;;;;;21329686;27;19911;-81
2024/02/17 23:07:26;;;;;;;;;;;9.50;99.90;;;;;;21320728;27;19915;-79
2024/02/17 23:17:27;;;;;;;;;;;9.50;99.90;;;;;;21264427;27;19920;-81
2024/02/17 23:27:28;;;;;;;;;;;9.50;99.90;;;;;;21234302;27;19966;-80
2024/02/17 23:37:28;;;;;;;;;;;9.40;99.90;;;;;;21244255;27;19911;-81
2024/02/17 23:47:29;;;;;;;;;;;9.50;99.90;;;;;;21258493;27;20350;-78
2024/02/17 23:57:30;;;;;;;;;;;9.40;99.90;;;;;;21211626;27;19950;-79
